sensor_id;sensor_type;location;lat;lon;timestamp;P1;durP1;ratioP1;P2;durP2;ratioP2
51738;SDS011;37815;52.692;6.226;2023-01-19T00:02:50;2.00;;;1.50;;
51738;SDS011;37815;52.692;6.226;2023-01-19T00:07:51;1.77;;;1.23;;
51738;SDS011;37815;52.692;6.226;2023-01-19T00:12:51;3.22;;;1.50;;
51738;SDS011;37815;52.692;6.226;2023-01-19T00:17:52;1.80;;;1.25;;
51738;SDS011;37815;52.692;6.226;2023-01-19T00:22:52;1.88;;;1.30;;
51738;SDS011;37815;52.692;6.226;2023-01-19T00:27:53;3.72;;;1.30;;
51738;SDS011;37815;52.692;6.226;2023-01-19T00:32:54;3.17;;;1.30;;
51738;SDS011;37815;52.692;6.226;2023-01-19T00:37:55;1.92;;;0.93;;
51738;SDS011;37815;52.692;6.226;2023-01-19T00:42:56;0.85;;;0.82;;
51738;SDS011;37815;52.692;6.226;2023-01-19T00:47:57;1.27;;;0.90;;
51738;SDS011;37815;52.692;6.226;2023-01-19T00:52:58;1.70;;;1.17;;
51738;SDS011;37815;52.692;6.226;2023-01-19T00:58:00;1.17;;;1.00;;
51738;SDS011;37815;52.692;6.226;2023-01-19T01:03:01;1.25;;;1.00;;
51738;SDS011;37815;52.692;6.226;2023-01-19T01:08:02;1.70;;;1.17;;
51738;SDS011;37815;52.692;6.226;2023-01-19T01:13:03;0.93;;;0.90;;
51738;SDS011;37815;52.692;6.226;2023-01-19T01:18:03;1.50;;;0.90;;
51738;SDS011;37815;52.692;6.226;2023-01-19T01:23:04;1.17;;;0.80;;
51738;SDS011;37815;52.692;6.226;2023-01-19T01:28:06;1.70;;;1.00;;
51738;SDS011;37815;52.692;6.226;2023-01-19T01:33:07;1.67;;;1.02;;
51738;SDS011;37815;52.692;6.226;2023-01-19T01:38:10;2.20;;;1.02;;
51738;SDS011;37815;52.692;6.226;2023-01-19T01:43:11;1.17;;;1.00;;
51738;SDS011;37815;52.692;6.226;2023-01-19T01:48:23;1.63;;;1.10;;
51738;SDS011;37815;52.692;6.226;2023-01-19T01:53:26;2.00;;;1.17;;
51738;SDS011;37815;52.692;6.226;2023-01-19T01:58:29;1.45;;;1.08;;
51738;SDS011;37815;52.692;6.226;2023-01-19T02:03:31;2.70;;;1.25;;
51738;SDS011;37815;52.692;6.226;2023-01-19T02:14:04;2.10;;;1.40;;
51738;SDS011;37815;52.692;6.226;2023-01-19T02:19:06;2.50;;;1.60;;
51738;SDS011;37815;52.692;6.226;2023-01-19T02:24:10;4.10;;;1.58;;
51738;SDS011;37815;52.692;6.226;2023-01-19T02:29:11;1.80;;;1.50;;
51738;SDS011;37815;52.692;6.226;2023-01-19T02:34:15;2.40;;;1.40;;
51738;SDS011;37815;52.692;6.226;2023-01-19T02:39:19;1.40;;;1.10;;
51738;SDS011;37815;52.692;6.226;2023-01-19T02:44:30;2.17;;;1.40;;
51738;SDS011;37815;52.692;6.226;2023-01-19T02:49:31;2.65;;;1.50;;
51738;SDS011;37815;52.692;6.226;2023-01-19T02:54:35;1.88;;;1.33;;
51738;SDS011;37815;52.692;6.226;2023-01-19T03:15:47;1.45;;;1.20;;
51738;SDS011;37815;52.692;6.226;2023-01-19T03:20:52;1.80;;;1.30;;
51738;SDS011;37815;52.692;6.226;2023-01-19T03:25:56;1.30;;;1.10;;
51738;SDS011;37815;52.692;6.226;2023-01-19T03:31:01;2.05;;;1.23;;
51738;SDS011;37815;52.692;6.226;2023-01-19T03:36:19;2.03;;;1.40;;
51738;SDS011;37815;52.692;6.226;2023-01-19T03:41:42;1.58;;;1.00;;
51738;SDS011;37815;52.692;6.226;2023-01-19T03:46:46;1.83;;;1.20;;
51738;SDS011;37815;52.692;6.226;2023-01-19T03:51:49;1.48;;;1.20;;
51738;SDS011;37815;52.692;6.226;2023-01-19T03:56:50;2.15;;;1.20;;
51738;SDS011;37815;52.692;6.226;2023-01-19T04:01:54;1.40;;;1.10;;
51738;SDS011;37815;52.692;6.226;2023-01-19T04:06:55;1.05;;;0.90;;
51738;SDS011;37815;52.692;6.226;2023-01-19T04:11:56;1.17;;;0.95;;
51738;SDS011;37815;52.692;6.226;2023-01-19T04:16:57;2.15;;;1.05;;
51738;SDS011;37815;52.692;6.226;2023-01-19T04:21:57;1.60;;;1.02;;
51738;SDS011;37815;52.692;6.226;2023-01-19T04:26:58;1.15;;;0.75;;
51738;SDS011;37815;52.692;6.226;2023-01-19T04:31:59;1.50;;;1.15;;
51738;SDS011;37815;52.692;6.226;2023-01-19T04:37:00;0.77;;;0.68;;
51738;SDS011;37815;52.692;6.226;2023-01-19T04:42:00;1.88;;;1.00;;
51738;SDS011;37815;52.692;6.226;2023-01-19T04:47:01;1.45;;;1.00;;
51738;SDS011;37815;52.692;6.226;2023-01-19T04:52:05;1.60;;;0.80;;
51738;SDS011;37815;52.692;6.226;2023-01-19T04:57:06;1.52;;;0.85;;
51738;SDS011;37815;52.692;6.226;2023-01-19T05:02:06;0.77;;;0.68;;
51738;SDS011;37815;52.692;6.226;2023-01-19T05:07:07;2.00;;;0.85;;
51738;SDS011;37815;52.692;6.226;2023-01-19T05:12:08;1.02;;;0.43;;
51738;SDS011;37815;52.692;6.226;2023-01-19T05:17:08;1.65;;;0.60;;
51738;SDS011;37815;52.692;6.226;2023-01-19T05:22:09;1.05;;;0.52;;
51738;SDS011;37815;52.692;6.226;2023-01-19T05:27:10;2.85;;;0.60;;
51738;SDS011;37815;52.692;6.226;2023-01-19T05:32:11;1.25;;;0.57;;
51738;SDS011;37815;52.692;6.226;2023-01-19T05:37:12;1.35;;;0.80;;
51738;SDS011;37815;52.692;6.226;2023-01-19T05:42:13;1.75;;;0.63;;
51738;SDS011;37815;52.692;6.226;2023-01-19T05:47:13;1.10;;;0.60;;
51738;SDS011;37815;52.692;6.226;2023-01-19T05:52:16;0.88;;;0.65;;
51738;SDS011;37815;52.692;6.226;2023-01-19T05:57:17;1.55;;;0.50;;
51738;SDS011;37815;52.692;6.226;2023-01-19T06:02:17;0.70;;;0.55;;
51738;SDS011;37815;52.692;6.226;2023-01-19T06:07:18;0.82;;;0.47;;
51738;SDS011;37815;52.692;6.226;2023-01-19T06:12:19;0.68;;;0.40;;
51738;SDS011;37815;52.692;6.226;2023-01-19T06:17:19;1.88;;;0.47;;
51738;SDS011;37815;52.692;6.226;2023-01-19T06:22:20;1.08;;;0.50;;
51738;SDS011;37815;52.692;6.226;2023-01-19T06:27:20;2.30;;;0.60;;
51738;SDS011;37815;52.692;6.226;2023-01-19T06:32:21;1.65;;;0.40;;
51738;SDS011;37815;52.692;6.226;2023-01-19T06:37:22;0.68;;;0.38;;
51738;SDS011;37815;52.692;6.226;2023-01-19T06:42:25;1.05;;;0.63;;
51738;SDS011;37815;52.692;6.226;2023-01-19T06:47:26;1.77;;;0.40;;
51738;SDS011;37815;52.692;6.226;2023-01-19T06:52:26;0.90;;;0.50;;
51738;SDS011;37815;52.692;6.226;2023-01-19T06:57:27;1.17;;;0.30;;
51738;SDS011;37815;52.692;6.226;2023-01-19T07:02:28;0.93;;;0.50;;
51738;SDS011;37815;52.692;6.226;2023-01-19T07:07:28;0.82;;;0.45;;
51738;SDS011;37815;52.692;6.226;2023-01-19T07:12:29;2.70;;;0.52;;
51738;SDS011;37815;52.692;6.226;2023-01-19T07:17:29;1.17;;;0.50;;
51738;SDS011;37815;52.692;6.226;2023-01-19T07:22:30;0.63;;;0.38;;
51738;SDS011;37815;52.692;6.226;2023-01-19T07:27:31;0.55;;;0.40;;
51738;SDS011;37815;52.692;6.226;2023-01-19T07:32:32;2.83;;;0.50;;
51738;SDS011;37815;52.692;6.226;2023-01-19T07:37:32;0.40;;;0.22;;
51738;SDS011;37815;52.692;6.226;2023-01-19T07:42:33;0.85;;;0.40;;
51738;SDS011;37815;52.692;6.226;2023-01-19T07:47:34;1.75;;;0.47;;
51738;SDS011;37815;52.692;6.226;2023-01-19T07:52:35;1.23;;;0.38;;
51738;SDS011;37815;52.692;6.226;2023-01-19T07:57:36;0.60;;;0.40;;
51738;SDS011;37815;52.692;6.226;2023-01-19T08:02:48;1.45;;;0.55;;
51738;SDS011;37815;52.692;6.226;2023-01-19T08:07:50;3.28;;;0.47;;
51738;SDS011;37815;52.692;6.226;2023-01-19T08:12:52;1.17;;;0.43;;
51738;SDS011;37815;52.692;6.226;2023-01-19T08:17:57;0.75;;;0.40;;
51738;SDS011;37815;52.692;6.226;2023-01-19T08:22:59;0.85;;;0.40;;
51738;SDS011;37815;52.692;6.226;2023-01-19T08:28:01;2.75;;;0.55;;
51738;SDS011;37815;52.692;6.226;2023-01-19T08:33:02;3.13;;;0.60;;
51738;SDS011;37815;52.692;6.226;2023-01-19T08:38:07;2.33;;;0.75;;
51738;SDS011;37815;52.692;6.226;2023-01-19T08:43:12;2.80;;;0.63;;
51738;SDS011;37815;52.692;6.226;2023-01-19T08:48:15;2.40;;;0.70;;
51738;SDS011;37815;52.692;6.226;2023-01-19T08:53:17;2.60;;;1.50;;
51738;SDS011;37815;52.692;6.226;2023-01-19T08:58:20;2.88;;;0.60;;
51738;SDS011;37815;52.692;6.226;2023-01-19T09:03:20;0.80;;;0.60;;
51738;SDS011;37815;52.692;6.226;2023-01-19T09:08:21;1.88;;;0.50;;
51738;SDS011;37815;52.692;6.226;2023-01-19T09:13:22;1.15;;;0.60;;
51738;SDS011;37815;52.692;6.226;2023-01-19T09:18:45;1.60;;;0.50;;
51738;SDS011;37815;52.692;6.226;2023-01-19T09:29:07;1.65;;;0.50;;
51738;SDS011;37815;52.692;6.226;2023-01-19T09:34:08;1.25;;;0.50;;
51738;SDS011;37815;52.692;6.226;2023-01-19T09:39:09;1.40;;;0.70;;
51738;SDS011;37815;52.692;6.226;2023-01-19T09:44:12;2.95;;;0.75;;
51738;SDS011;37815;52.692;6.226;2023-01-19T09:49:23;1.65;;;0.88;;
51738;SDS011;37815;52.692;6.226;2023-01-19T09:54:36;3.80;;;0.73;;
51738;SDS011;37815;52.692;6.226;2023-01-19T09:59:44;0.93;;;0.50;;
51738;SDS011;37815;52.692;6.226;2023-01-19T10:15:23;2.42;;;0.43;;
51738;SDS011;37815;52.692;6.226;2023-01-19T10:25:32;1.48;;;0.55;;
51738;SDS011;37815;52.692;6.226;2023-01-19T10:30:33;1.90;;;0.70;;
51738;SDS011;37815;52.692;6.226;2023-01-19T10:35:34;1.73;;;0.60;;
51738;SDS011;37815;52.692;6.226;2023-01-19T10:40:45;2.92;;;0.65;;
51738;SDS011;37815;52.692;6.226;2023-01-19T10:45:54;2.28;;;0.60;;
51738;SDS011;37815;52.692;6.226;2023-01-19T10:51:02;1.35;;;0.60;;
51738;SDS011;37815;52.692;6.226;2023-01-19T10:56:16;10.20;;;3.17;;
51738;SDS011;37815;52.692;6.226;2023-01-19T11:01:23;4.07;;;1.13;;
51738;SDS011;37815;52.692;6.226;2023-01-19T11:06:26;4.28;;;0.70;;
51738;SDS011;37815;52.692;6.226;2023-01-19T11:11:30;3.55;;;0.93;;
51738;SDS011;37815;52.692;6.226;2023-01-19T11:16:44;4.93;;;0.90;;
51738;SDS011;37815;52.692;6.226;2023-01-19T11:21:47;6.85;;;1.08;;
51738;SDS011;37815;52.692;6.226;2023-01-19T11:26:49;5.85;;;1.27;;
51738;SDS011;37815;52.692;6.226;2023-01-19T11:37:30;4.68;;;1.25;;
51738;SDS011;37815;52.692;6.226;2023-01-19T11:42:53;9.45;;;1.45;;
51738;SDS011;37815;52.692;6.226;2023-01-19T11:48:26;7.22;;;0.98;;
51738;SDS011;37815;52.692;6.226;2023-01-19T11:53:52;10.27;;;1.60;;
51738;SDS011;37815;52.692;6.226;2023-01-19T11:59:13;4.57;;;1.25;;
51738;SDS011;37815;52.692;6.226;2023-01-19T12:04:35;4.97;;;0.85;;
51738;SDS011;37815;52.692;6.226;2023-01-19T12:10:01;3.78;;;1.10;;
51738;SDS011;37815;52.692;6.226;2023-01-19T12:15:42;7.93;;;1.10;;
51738;SDS011;37815;52.692;6.226;2023-01-19T12:21:03;2.65;;;0.63;;
51738;SDS011;37815;52.692;6.226;2023-01-19T12:32:18;5.05;;;0.70;;
51738;SDS011;37815;52.692;6.226;2023-01-19T12:37:47;3.58;;;0.70;;
51738;SDS011;37815;52.692;6.226;2023-01-19T12:43:12;4.95;;;0.82;;
51738;SDS011;37815;52.692;6.226;2023-01-19T12:48:33;7.28;;;1.20;;
51738;SDS011;37815;52.692;6.226;2023-01-19T12:53:52;3.45;;;0.82;;
51738;SDS011;37815;52.692;6.226;2023-01-19T12:59:21;2.05;;;0.55;;
51738;SDS011;37815;52.692;6.226;2023-01-19T13:21:37;1.63;;;0.70;;
51738;SDS011;37815;52.692;6.226;2023-01-19T13:27:01;1.30;;;0.60;;
51738;SDS011;37815;52.692;6.226;2023-01-19T13:32:21;3.53;;;0.70;;
51738;SDS011;37815;52.692;6.226;2023-01-19T13:37:43;3.65;;;1.08;;
51738;SDS011;37815;52.692;6.226;2023-01-19T13:43:05;5.45;;;0.80;;
51738;SDS011;37815;52.692;6.226;2023-01-19T13:48:32;3.15;;;0.52;;
51738;SDS011;37815;52.692;6.226;2023-01-19T13:53:53;2.75;;;0.60;;
51738;SDS011;37815;52.692;6.226;2023-01-19T13:59:15;2.88;;;0.57;;
51738;SDS011;37815;52.692;6.226;2023-01-19T14:10:01;0.60;;;0.30;;
51738;SDS011;37815;52.692;6.226;2023-01-19T14:15:24;1.55;;;0.57;;
51738;SDS011;37815;52.692;6.226;2023-01-19T14:48:16;3.05;;;0.68;;
51738;SDS011;37815;52.692;6.226;2023-01-19T14:53:37;1.70;;;0.75;;
51738;SDS011;37815;52.692;6.226;2023-01-19T14:58:56;0.80;;;0.43;;
51738;SDS011;37815;52.692;6.226;2023-01-19T15:04:18;2.92;;;0.70;;
51738;SDS011;37815;52.692;6.226;2023-01-19T15:09:37;4.53;;;0.60;;
51738;SDS011;37815;52.692;6.226;2023-01-19T15:14:57;1.60;;;0.60;;
51738;SDS011;37815;52.692;6.226;2023-01-19T15:25:37;2.15;;;0.50;;
51738;SDS011;37815;52.692;6.226;2023-01-19T15:30:57;1.52;;;0.55;;
51738;SDS011;37815;52.692;6.226;2023-01-19T15:36:18;0.73;;;0.30;;
51738;SDS011;37815;52.692;6.226;2023-01-19T15:41:39;2.35;;;0.80;;
51738;SDS011;37815;52.692;6.226;2023-01-19T15:46:58;2.53;;;1.23;;
51738;SDS011;37815;52.692;6.226;2023-01-19T16:02:56;2.75;;;1.02;;
51738;SDS011;37815;52.692;6.226;2023-01-19T16:08:16;6.43;;;1.02;;
51738;SDS011;37815;52.692;6.226;2023-01-19T16:24:14;2.90;;;0.88;;
51738;SDS011;37815;52.692;6.226;2023-01-19T16:29:33;2.78;;;1.10;;
51738;SDS011;37815;52.692;6.226;2023-01-19T16:34:53;4.07;;;1.13;;
51738;SDS011;37815;52.692;6.226;2023-01-19T16:40:12;6.07;;;1.10;;
51738;SDS011;37815;52.692;6.226;2023-01-19T16:45:32;2.92;;;1.08;;
51738;SDS011;37815;52.692;6.226;2023-01-19T16:50:58;4.57;;;1.25;;
51738;SDS011;37815;52.692;6.226;2023-01-19T16:56:21;5.35;;;1.02;;
51738;SDS011;37815;52.692;6.226;2023-01-19T17:01:41;4.72;;;1.20;;
51738;SDS011;37815;52.692;6.226;2023-01-19T17:07:02;2.17;;;0.75;;
51738;SDS011;37815;52.692;6.226;2023-01-19T17:12:21;2.28;;;0.98;;
51738;SDS011;37815;52.692;6.226;2023-01-19T17:17:40;3.28;;;1.17;;
51738;SDS011;37815;52.692;6.226;2023-01-19T17:28:18;3.88;;;1.17;;
51738;SDS011;37815;52.692;6.226;2023-01-19T17:33:38;1.60;;;0.77;;
51738;SDS011;37815;52.692;6.226;2023-01-19T17:38:58;3.40;;;1.10;;
51738;SDS011;37815;52.692;6.226;2023-01-19T17:44:21;3.55;;;1.00;;
51738;SDS011;37815;52.692;6.226;2023-01-19T17:49:41;2.28;;;0.90;;
51738;SDS011;37815;52.692;6.226;2023-01-19T18:00:19;4.65;;;1.42;;
51738;SDS011;37815;52.692;6.226;2023-01-19T18:05:38;7.93;;;1.90;;
51738;SDS011;37815;52.692;6.226;2023-01-19T18:10:58;2.28;;;1.10;;
51738;SDS011;37815;52.692;6.226;2023-01-19T18:16:20;2.13;;;1.10;;
51738;SDS011;37815;52.692;6.226;2023-01-19T18:21:42;4.20;;;1.00;;
51738;SDS011;37815;52.692;6.226;2023-01-19T18:27:01;3.60;;;1.35;;
51738;SDS011;37815;52.692;6.226;2023-01-19T18:32:20;4.03;;;1.05;;
51738;SDS011;37815;52.692;6.226;2023-01-19T18:48:17;3.72;;;0.95;;
51738;SDS011;37815;52.692;6.226;2023-01-19T18:58:56;4.75;;;1.55;;
51738;SDS011;37815;52.692;6.226;2023-01-19T19:14:53;3.05;;;1.00;;
51738;SDS011;37815;52.692;6.226;2023-01-19T19:20:12;1.55;;;0.80;;
51738;SDS011;37815;52.692;6.226;2023-01-19T19:25:32;2.42;;;1.27;;
51738;SDS011;37815;52.692;6.226;2023-01-19T19:36:20;2.05;;;0.85;;
51738;SDS011;37815;52.692;6.226;2023-01-19T19:41:40;1.88;;;0.95;;
51738;SDS011;37815;52.692;6.226;2023-01-19T19:47:00;1.92;;;0.73;;
51738;SDS011;37815;52.692;6.226;2023-01-19T20:02:42;1.55;;;0.75;;
51738;SDS011;37815;52.692;6.226;2023-01-19T20:08:01;1.75;;;1.00;;
51738;SDS011;37815;52.692;6.226;2023-01-19T20:13:20;1.92;;;0.80;;
51738;SDS011;37815;52.692;6.226;2023-01-19T20:18:40;2.00;;;0.88;;
51738;SDS011;37815;52.692;6.226;2023-01-19T20:24:02;3.00;;;0.70;;
51738;SDS011;37815;52.692;6.226;2023-01-19T20:29:23;1.73;;;0.70;;
51738;SDS011;37815;52.692;6.226;2023-01-19T20:40:01;2.20;;;0.77;;
51738;SDS011;37815;52.692;6.226;2023-01-19T20:45:21;1.08;;;0.73;;
51738;SDS011;37815;52.692;6.226;2023-01-19T20:50:40;1.38;;;0.70;;
51738;SDS011;37815;52.692;6.226;2023-01-19T20:56:03;2.72;;;0.70;;
51738;SDS011;37815;52.692;6.226;2023-01-19T21:01:23;1.15;;;0.68;;
51738;SDS011;37815;52.692;6.226;2023-01-19T21:06:43;2.67;;;1.00;;
51738;SDS011;37815;52.692;6.226;2023-01-19T21:12:02;4.30;;;0.77;;
51738;SDS011;37815;52.692;6.226;2023-01-19T21:17:22;1.80;;;0.90;;
51738;SDS011;37815;52.692;6.226;2023-01-19T21:22:41;0.82;;;0.70;;
51738;SDS011;37815;52.692;6.226;2023-01-19T21:28:01;1.38;;;0.73;;
51738;SDS011;37815;52.692;6.226;2023-01-19T21:33:20;1.35;;;0.70;;
51738;SDS011;37815;52.692;6.226;2023-01-19T21:38:40;2.00;;;0.70;;
51738;SDS011;37815;52.692;6.226;2023-01-19T21:49:19;2.50;;;0.68;;
51738;SDS011;37815;52.692;6.226;2023-01-19T21:54:38;1.00;;;0.75;;
51738;SDS011;37815;52.692;6.226;2023-01-19T21:59:57;1.23;;;0.65;;
51738;SDS011;37815;52.692;6.226;2023-01-19T22:05:16;1.42;;;0.70;;
51738;SDS011;37815;52.692;6.226;2023-01-19T22:10:36;1.08;;;0.68;;
51738;SDS011;37815;52.692;6.226;2023-01-19T22:15:59;1.92;;;0.80;;
51738;SDS011;37815;52.692;6.226;2023-01-19T22:21:22;1.10;;;0.70;;
51738;SDS011;37815;52.692;6.226;2023-01-19T22:26:43;1.10;;;0.45;;
51738;SDS011;37815;52.692;6.226;2023-01-19T22:32:02;0.68;;;0.50;;
51738;SDS011;37815;52.692;6.226;2023-01-19T22:42:43;3.85;;;0.70;;
51738;SDS011;37815;52.692;6.226;2023-01-19T22:48:03;0.93;;;0.50;;
51738;SDS011;37815;52.692;6.226;2023-01-19T22:53:22;1.73;;;0.50;;
51738;SDS011;37815;52.692;6.226;2023-01-19T23:04:04;0.82;;;0.60;;
51738;SDS011;37815;52.692;6.226;2023-01-19T23:09:25;1.00;;;0.60;;
51738;SDS011;37815;52.692;6.226;2023-01-19T23:14:44;0.47;;;0.45;;
51738;SDS011;37815;52.692;6.226;2023-01-19T23:20:03;2.00;;;0.35;;
51738;SDS011;37815;52.692;6.226;2023-01-19T23:25:22;0.85;;;0.50;;
51738;SDS011;37815;52.692;6.226;2023-01-19T23:30:41;0.45;;;0.30;;
51738;SDS011;37815;52.692;6.226;2023-01-19T23:36:00;0.93;;;0.60;;
51738;SDS011;37815;52.692;6.226;2023-01-19T23:41:20;1.08;;;0.70;;
51738;SDS011;37815;52.692;6.226;2023-01-19T23:46:40;1.10;;;0.90;;
51738;SDS011;37815;52.692;6.226;2023-01-19T23:51:59;1.55;;;0.75;;
51738;SDS011;37815;52.692;6.226;2023-01-19T23:57:18;1.30;;;0.65;;
